CheckWX is a tool to help pilots better visualize weather data.  It is not intended as a substitute for an official pre-flight weather briefing.

04:00:15 UTC

KCRS METAR
C David Campbell Field-Corsicana Municipal Airport
Corsicana, Texas, USA
Current

1 hour ago

KCRS 270253Z AUTO 14010KT 10SM FEW055 27/21 A2997 RMK AO2 SLP143 T02670211 56008
Observed
May-27 @ 02:53 UTC
Wind
  • 140° at 10 KTS
Visibility
10 SM
Flight Rules
VFR
Cloud Levels
  • Few at 5,500' AGL
Temperature
27°C / 81°F
Dewpoint
21°C / 70°F
Heat Index
29°C / 85°F
Humidity
70%
Altimeter
29.97" Hg
Pressure
1014.92 hPa
Previous

2 hours ago

KCRS 270153Z AUTO 13005KT 10SM SCT055 26/21 A2998 RMK AO2 SLP147 T02610211
Observed
May-27 @ 01:53 UTC
Wind
  • 130° at 5 KTS
Visibility
10 SM
Flight Rules
VFR
Cloud Levels
  • Scattered at 5,500' AGL
Temperature
26°C / 79°F
Dewpoint
21°C / 70°F
Humidity
74%
Altimeter
29.98" Hg
Pressure
1015.22 hPa
Previous

3 hours ago

KCRS 270053Z AUTO 14005KT 10SM CLR 28/21 A2998 RMK AO2 SLP146 T02830211
Observed
May-27 @ 00:53 UTC
Wind
  • 140° at 5 KTS
Visibility
10 SM
Flight Rules
VFR
Cloud Levels
  • Clear skies
Temperature
28°C / 82°F
Dewpoint
21°C / 70°F
Heat Index
30°C / 86°F
Humidity
66%
Altimeter
29.98" Hg
Pressure
1015.22 hPa